createdAt,value
2017-06-20T00:01:11.887Z,7.80
2017-06-20T00:03:39.272Z,7.07
2017-06-20T00:06:06.684Z,7.00
2017-06-20T00:08:34.087Z,6.43
2017-06-20T00:11:01.476Z,6.80
2017-06-20T00:13:28.874Z,6.87
2017-06-20T00:15:56.278Z,9.67
2017-06-20T00:18:23.686Z,8.30
2017-06-20T00:20:51.099Z,9.63
2017-06-20T00:23:18.485Z,9.60
2017-06-20T00:25:45.879Z,8.73
2017-06-20T00:28:13.278Z,9.40
2017-06-20T00:30:40.671Z,8.30
2017-06-20T00:33:08.079Z,15.30
2017-06-20T00:35:35.462Z,9.30
2017-06-20T00:38:02.862Z,9.63
2017-06-20T00:40:30.255Z,7.40
2017-06-20T00:42:57.659Z,9.00
2017-06-20T00:45:25.058Z,8.50
2017-06-20T00:47:52.456Z,8.43
2017-06-20T00:50:19.854Z,9.00
2017-06-20T00:52:47.257Z,8.70
2017-06-20T00:55:14.655Z,9.80
2017-06-20T00:57:42.052Z,8.80
2017-06-20T01:00:09.446Z,9.50
2017-06-20T01:02:36.855Z,8.43
2017-06-20T01:05:04.260Z,12.47
2017-06-20T01:07:31.670Z,10.67
2017-06-20T01:09:59.079Z,9.47
2017-06-20T01:12:26.495Z,10.93
2017-06-20T01:14:53.902Z,13.90
2017-06-20T01:17:21.316Z,16.33
2017-06-20T01:19:48.716Z,12.73
2017-06-20T01:22:16.119Z,14.27
2017-06-20T01:24:43.532Z,11.33
2017-06-20T01:27:10.931Z,13.73
2017-06-20T01:29:38.347Z,13.27
2017-06-20T01:32:05.751Z,14.77
2017-06-20T01:34:33.174Z,15.57
2017-06-20T01:37:00.582Z,20.60
2017-06-20T01:39:27.991Z,14.57
2017-06-20T01:41:55.401Z,17.07
2017-06-20T01:44:22.809Z,17.17
2017-06-20T01:46:50.220Z,15.50
2017-06-20T01:49:17.632Z,15.03
2017-06-20T01:51:45.036Z,15.03
2017-06-20T01:54:12.443Z,15.57
2017-06-20T01:56:39.852Z,15.03
2017-06-20T01:59:07.262Z,15.60
2017-06-20T02:01:34.665Z,17.90
2017-06-20T02:04:02.075Z,17.60
2017-06-20T02:06:29.483Z,16.40
2017-06-20T02:08:56.903Z,21.10
2017-06-20T02:11:24.299Z,17.30
2017-06-20T02:13:51.719Z,20.37
2017-06-20T02:16:19.127Z,17.73
2017-06-20T02:18:46.540Z,17.30
2017-06-20T02:21:13.940Z,16.83
2017-06-20T02:23:41.348Z,16.37
2017-06-20T02:26:08.753Z,20.67
2017-06-20T02:28:36.171Z,21.93
2017-06-20T02:31:03.564Z,19.43
2017-06-20T02:33:30.977Z,22.40
2017-06-20T02:35:58.375Z,18.67
2017-06-20T02:38:25.782Z,18.20
2017-06-20T02:40:53.197Z,22.30
2017-06-20T02:43:20.602Z,23.60
2017-06-20T02:45:48.007Z,27.97
2017-06-20T02:48:15.407Z,20.53
2017-06-20T02:50:42.830Z,19.20
2017-06-20T02:53:10.230Z,25.57
2017-06-20T02:55:37.640Z,22.00
2017-06-20T02:58:05.039Z,22.87
2017-06-20T03:00:32.447Z,25.53
2017-06-20T03:02:59.855Z,26.63
2017-06-20T03:05:27.275Z,25.03
2017-06-20T03:07:54.667Z,22.60
2017-06-20T03:10:22.083Z,22.70
2017-06-20T03:12:49.482Z,30.30
2017-06-20T03:15:16.899Z,27.40
2017-06-20T03:17:44.303Z,24.10
2017-06-20T03:20:11.726Z,24.70
2017-06-20T03:22:39.136Z,21.37
2017-06-20T03:25:06.543Z,19.63
2017-06-20T03:27:33.971Z,23.30
2017-06-20T03:30:01.379Z,26.33
2017-06-20T03:32:28.779Z,20.63
2017-06-20T03:34:56.199Z,24.80
2017-06-20T03:37:23.616Z,22.20
2017-06-20T03:39:51.022Z,22.40
2017-06-20T03:42:18.431Z,24.90
2017-06-20T03:44:45.839Z,28.37
2017-06-20T03:47:13.244Z,50.80
2017-06-20T03:49:40.665Z,27.93
2017-06-20T03:52:08.070Z,28.17
2017-06-20T03:54:35.495Z,31.00
2017-06-20T03:57:02.896Z,27.90
2017-06-20T03:59:30.299Z,25.20
2017-06-20T04:01:57.725Z,27.60
2017-06-20T04:04:25.135Z,26.83
2017-06-20T04:06:52.541Z,32.60
2017-06-20T04:09:19.940Z,29.53
2017-06-20T04:11:47.351Z,28.53
2017-06-20T04:14:14.756Z,24.07
2017-06-20T04:16:42.169Z,27.80
2017-06-20T04:19:09.591Z,25.53
2017-06-20T04:21:42.775Z,37.60
2017-06-20T04:24:10.179Z,36.33
2017-06-20T04:26:37.584Z,36.47
2017-06-20T04:29:04.997Z,32.03
2017-06-20T04:31:32.409Z,34.73
2017-06-20T04:33:59.816Z,33.33
2017-06-20T04:36:27.242Z,39.70
2017-06-20T04:38:54.670Z,37.77
2017-06-20T04:41:22.101Z,33.67
2017-06-20T04:43:49.528Z,35.80
2017-06-20T04:46:16.948Z,35.97
2017-06-20T04:48:44.357Z,37.20
2017-06-20T04:51:11.763Z,37.03
2017-06-20T04:53:39.183Z,35.40
2017-06-20T04:56:06.600Z,35.70
2017-06-20T04:58:34.008Z,35.93
2017-06-20T05:01:01.412Z,29.20
2017-06-20T05:03:28.824Z,31.87
2017-06-20T05:05:56.232Z,32.37
2017-06-20T05:08:23.674Z,33.90
2017-06-20T05:10:51.091Z,32.50
2017-06-20T05:13:18.541Z,35.67
2017-06-20T05:15:45.959Z,30.37
2017-06-20T05:18:13.372Z,25.10
2017-06-20T05:20:40.774Z,18.27
2017-06-20T05:23:08.210Z,26.13
2017-06-20T05:25:35.611Z,20.70
2017-06-20T05:28:03.047Z,27.43
2017-06-20T05:30:30.474Z,24.23
2017-06-20T05:32:57.880Z,18.70
2017-06-20T05:35:25.288Z,18.47
2017-06-20T05:37:52.699Z,22.80
2017-06-20T05:40:20.107Z,27.77
2017-06-20T05:42:47.523Z,26.10
2017-06-20T05:45:14.934Z,18.90
2017-06-20T05:47:42.353Z,22.30
2017-06-20T05:50:09.780Z,33.40
2017-06-20T05:52:37.195Z,24.17
2017-06-20T05:55:04.605Z,25.93
2017-06-20T05:57:32.019Z,17.67
2017-06-20T05:59:59.427Z,18.97
2017-06-20T06:02:26.839Z,25.83
2017-06-20T06:04:54.290Z,18.93
2017-06-20T06:07:21.707Z,21.77
2017-06-20T06:09:49.147Z,20.00
2017-06-20T06:12:16.555Z,17.07
2017-06-20T06:14:43.967Z,17.60
2017-06-20T06:17:11.381Z,28.13
2017-06-20T06:19:38.787Z,23.33
2017-06-20T06:22:06.249Z,23.40
2017-06-20T06:24:33.654Z,19.97
2017-06-20T06:27:01.065Z,24.80
2017-06-20T06:29:28.484Z,16.63
2017-06-20T06:31:55.895Z,22.03
2017-06-20T06:34:23.320Z,17.20
2017-06-20T06:36:50.723Z,19.00
2017-06-20T06:39:18.127Z,16.30
2017-06-20T06:41:45.536Z,18.87
2017-06-20T06:44:12.955Z,17.33
2017-06-20T06:46:40.358Z,17.37
2017-06-20T06:49:07.778Z,22.80
2017-06-20T06:51:35.176Z,17.70
2017-06-20T06:54:02.584Z,16.30
2017-06-20T06:56:30.000Z,15.70
2017-06-20T06:58:57.419Z,16.70
2017-06-20T07:01:24.823Z,21.87
2017-06-20T07:03:52.233Z,21.37
2017-06-20T07:06:19.641Z,18.20
2017-06-20T07:08:47.059Z,21.90
2017-06-20T07:11:14.470Z,21.40
2017-06-20T07:13:41.887Z,20.33
2017-06-20T07:16:09.304Z,23.30
2017-06-20T07:18:36.723Z,17.53
2017-06-20T07:21:04.130Z,28.00
2017-06-20T07:23:31.539Z,19.70
2017-06-20T07:25:58.942Z,21.83
2017-06-20T07:28:26.352Z,19.87
2017-06-20T07:30:53.770Z,20.30
2017-06-20T07:33:21.187Z,22.90
2017-06-20T07:35:48.617Z,20.43
2017-06-20T07:38:16.046Z,28.67
2017-06-20T07:40:43.455Z,21.10
2017-06-20T07:43:10.884Z,19.23
2017-06-20T07:45:38.310Z,22.73
2017-06-20T07:48:05.723Z,29.27
2017-06-20T07:50:33.180Z,21.87
2017-06-20T07:53:00.613Z,23.50
2017-06-20T07:55:28.036Z,28.30
2017-06-20T07:57:55.459Z,25.57
2017-06-20T08:00:22.889Z,27.73
2017-06-20T08:02:50.315Z,26.50
2017-06-20T08:05:17.736Z,19.70
2017-06-20T08:07:45.164Z,24.43
2017-06-20T08:10:12.579Z,22.67
2017-06-20T08:12:39.991Z,22.80
2017-06-20T08:15:07.413Z,18.03
2017-06-20T08:17:34.832Z,19.70
2017-06-20T08:20:02.253Z,18.10
2017-06-20T08:22:29.666Z,19.10
2017-06-20T08:24:57.095Z,19.23
2017-06-20T08:27:24.499Z,20.00
2017-06-20T08:29:51.924Z,18.53
2017-06-20T08:32:19.359Z,18.70
2017-06-20T08:34:46.780Z,19.63
2017-06-20T08:37:19.816Z,23.83
2017-06-20T08:39:47.235Z,15.40
2017-06-20T08:42:14.651Z,19.47
2017-06-20T08:44:42.060Z,14.03
2017-06-20T08:47:09.478Z,15.37
2017-06-20T08:49:36.887Z,13.93
2017-06-20T08:52:04.323Z,17.57
2017-06-20T08:54:31.744Z,17.33
2017-06-20T08:56:59.174Z,11.30
2017-06-20T08:59:26.582Z,13.27
2017-06-20T09:01:54.004Z,11.10
2017-06-20T09:04:21.410Z,15.27
2017-06-20T09:06:48.828Z,9.67
2017-06-20T09:09:16.227Z,12.13
2017-06-20T09:11:43.669Z,13.07
2017-06-20T09:14:11.076Z,13.53
2017-06-20T09:16:38.492Z,14.00
2017-06-20T09:19:05.900Z,18.03
2017-06-20T09:21:33.297Z,9.10
2017-06-20T09:24:00.709Z,12.27
2017-06-20T09:26:28.124Z,16.33
2017-06-20T09:28:55.533Z,6.80
2017-06-20T09:31:22.956Z,12.43
2017-06-20T09:33:50.355Z,5.80
2017-06-20T09:36:17.767Z,7.30
2017-06-20T09:38:48.991Z,3.57
2017-06-20T09:41:16.404Z,5.03
2017-06-20T09:43:43.823Z,7.53
2017-06-20T09:46:11.290Z,4.20
2017-06-20T09:48:38.695Z,6.63
2017-06-20T09:51:06.113Z,3.60
2017-06-20T09:53:33.503Z,8.00
2017-06-20T09:56:00.947Z,5.63
2017-06-20T09:58:28.347Z,6.33
2017-06-20T10:00:55.833Z,6.40
2017-06-20T10:03:23.227Z,6.20
2017-06-20T10:05:50.636Z,5.70
2017-06-20T10:08:18.043Z,5.80
2017-06-20T10:10:45.450Z,6.17
2017-06-20T10:13:12.852Z,4.83
2017-06-20T10:15:40.294Z,8.20
2017-06-20T10:18:07.748Z,5.10
2017-06-20T10:20:35.148Z,7.20
2017-06-20T10:23:02.553Z,6.50
2017-06-20T10:25:29.973Z,5.23
2017-06-20T10:27:57.383Z,7.50
2017-06-20T10:30:24.780Z,6.00
2017-06-20T10:32:52.184Z,7.40
2017-06-20T10:35:19.588Z,4.90
2017-06-20T10:37:47.003Z,4.10
2017-06-20T10:40:14.403Z,5.43
2017-06-20T10:42:41.850Z,5.70
2017-06-20T10:45:09.292Z,14.17
2017-06-20T10:47:36.719Z,6.80
2017-06-20T10:50:04.116Z,5.50
2017-06-20T10:52:31.530Z,3.70
2017-06-20T10:54:58.923Z,9.50
2017-06-20T10:57:26.335Z,7.07
2017-06-20T10:59:53.753Z,11.80
2017-06-20T11:02:21.169Z,12.13
2017-06-20T11:04:48.569Z,6.70
2017-06-20T11:07:15.981Z,8.40
2017-06-20T11:09:43.426Z,8.33
2017-06-20T11:12:10.837Z,5.90
2017-06-20T11:14:38.249Z,6.33
2017-06-20T11:17:05.755Z,6.90
2017-06-20T11:19:33.157Z,4.60
2017-06-20T11:22:00.566Z,5.20
2017-06-20T11:24:27.984Z,7.30
2017-06-20T11:26:55.395Z,3.63
2017-06-20T11:29:22.836Z,2.60
2017-06-20T11:31:50.244Z,4.80
2017-06-20T11:34:17.655Z,5.80
2017-06-20T11:36:45.071Z,4.83
2017-06-20T11:39:12.495Z,4.07
2017-06-20T11:41:39.910Z,4.23
2017-06-20T11:44:07.320Z,5.13
2017-06-20T11:46:34.731Z,4.27
2017-06-20T11:49:02.204Z,3.80
2017-06-20T11:51:29.568Z,6.70
2017-06-20T11:53:56.975Z,6.83
2017-06-20T11:56:24.387Z,12.63
2017-06-20T11:58:51.799Z,3.13
2017-06-20T12:01:19.204Z,8.20
2017-06-20T12:03:46.615Z,8.53
2017-06-20T12:06:14.021Z,7.30
2017-06-20T12:08:41.427Z,4.87
2017-06-20T12:11:08.856Z,5.93
2017-06-20T12:13:36.265Z,3.80
2017-06-20T12:16:03.675Z,3.50
2017-06-20T12:18:31.098Z,3.07
2017-06-20T12:20:58.503Z,4.47
2017-06-20T12:23:25.932Z,10.30
2017-06-20T12:25:53.335Z,4.57
2017-06-20T12:28:20.744Z,3.10
2017-06-20T12:30:48.168Z,5.67
2017-06-20T12:33:15.581Z,10.47
2017-06-20T12:35:42.989Z,4.73
2017-06-20T12:38:10.403Z,10.07
2017-06-20T12:40:37.819Z,6.63
2017-06-20T12:43:05.236Z,5.83
2017-06-20T12:45:32.634Z,4.93
2017-06-20T12:48:00.036Z,5.07
2017-06-20T12:50:27.450Z,4.77
2017-06-20T12:52:54.846Z,7.43
2017-06-20T12:55:22.245Z,3.47
2017-06-20T12:57:49.644Z,6.30
2017-06-20T13:00:17.056Z,7.87
2017-06-20T13:02:44.452Z,4.43
2017-06-20T13:05:11.870Z,5.30
2017-06-20T13:07:39.269Z,6.03
2017-06-20T13:10:06.688Z,5.27
2017-06-20T13:12:34.085Z,3.83
2017-06-20T13:15:01.503Z,5.70
2017-06-20T13:17:28.912Z,3.97
2017-06-20T13:19:56.333Z,8.00
2017-06-20T13:22:23.733Z,8.13
2017-06-20T13:24:51.145Z,7.33
2017-06-20T13:27:18.549Z,5.73
2017-06-20T13:29:45.964Z,7.93
2017-06-20T13:32:13.363Z,8.33
2017-06-20T13:34:40.779Z,9.77
2017-06-20T13:37:08.194Z,8.13
2017-06-20T13:39:35.621Z,6.37
2017-06-20T13:42:03.049Z,10.10
2017-06-20T13:44:30.501Z,6.87
2017-06-20T13:46:57.967Z,7.50
2017-06-20T13:49:25.366Z,9.47
2017-06-20T13:51:52.778Z,4.93
2017-06-20T13:54:20.184Z,8.80
2017-06-20T13:56:47.616Z,5.23
2017-06-20T13:59:15.027Z,5.13
2017-06-20T14:01:42.455Z,4.43
2017-06-20T14:04:09.867Z,4.70
2017-06-20T14:06:37.285Z,5.73
2017-06-20T14:09:04.685Z,3.60
2017-06-20T14:11:32.123Z,4.00
2017-06-20T14:13:59.544Z,3.37
2017-06-20T14:16:26.983Z,7.33
2017-06-20T14:18:54.389Z,3.60
2017-06-20T14:21:21.812Z,5.30
2017-06-20T14:23:49.243Z,4.57
2017-06-20T14:26:16.662Z,3.33
2017-06-20T14:28:48.546Z,4.90
2017-06-20T14:31:15.974Z,12.30
2017-06-20T14:33:43.378Z,6.50
2017-06-20T14:36:10.794Z,4.53
2017-06-20T14:38:38.218Z,4.20
2017-06-20T14:41:05.664Z,12.97
2017-06-20T14:43:36.380Z,1.60
2017-06-20T14:46:03.805Z,6.07
2017-06-20T14:48:31.724Z,7.07
2017-06-20T14:50:59.141Z,6.03
2017-06-20T14:53:26.544Z,2.87
2017-06-20T14:55:54.077Z,9.10
2017-06-20T14:58:21.492Z,6.43
2017-06-20T15:00:48.948Z,7.90
2017-06-20T15:03:16.376Z,6.60
2017-06-20T15:05:43.813Z,10.03
2017-06-20T15:08:11.223Z,7.03
2017-06-20T15:10:38.702Z,4.30
2017-06-20T15:13:06.085Z,7.90
2017-06-20T15:15:33.489Z,6.97
2017-06-20T15:18:00.904Z,7.50
2017-06-20T15:20:28.320Z,4.63
2017-06-20T15:22:58.811Z,6.00
2017-06-20T15:25:26.250Z,2.53
2017-06-20T15:27:53.707Z,2.07
2017-06-20T15:30:21.142Z,5.93
2017-06-20T15:32:48.606Z,4.07
2017-06-20T15:35:16.006Z,3.20
2017-06-20T15:37:43.432Z,3.20
2017-06-20T15:40:10.892Z,3.97
2017-06-20T15:42:38.293Z,3.40
2017-06-20T15:45:05.716Z,3.63
2017-06-20T15:47:33.170Z,17.73
2017-06-20T15:50:00.628Z,4.43
2017-06-20T15:52:28.357Z,3.73
2017-06-20T15:54:55.773Z,2.60
2017-06-20T15:57:23.185Z,2.20
2017-06-20T15:59:50.668Z,3.40
2017-06-20T16:02:18.091Z,1.57
2017-06-20T16:04:45.519Z,2.00
2017-06-20T16:07:12.934Z,4.83
2017-06-20T16:09:40.360Z,6.90
2017-06-20T16:12:07.791Z,6.77
2017-06-20T16:14:35.242Z,4.07
2017-06-20T16:17:02.686Z,10.93
2017-06-20T16:19:30.149Z,3.60
2017-06-20T16:21:57.620Z,6.10
2017-06-20T16:24:25.039Z,4.17
2017-06-20T16:26:52.485Z,4.03
2017-06-20T16:29:19.928Z,9.37
2017-06-20T16:31:47.328Z,4.30
2017-06-20T16:34:14.743Z,6.30
2017-06-20T16:36:42.160Z,5.60
2017-06-20T16:39:12.694Z,2.97
2017-06-20T16:41:40.116Z,4.23
2017-06-20T16:44:07.596Z,3.37
2017-06-20T16:46:42.057Z,5.20
2017-06-20T16:49:09.481Z,3.13
2017-06-20T16:51:36.927Z,7.10
2017-06-20T16:54:04.359Z,4.10
2017-06-20T16:56:31.811Z,5.13
2017-06-20T16:58:59.247Z,3.23
2017-06-20T17:01:26.672Z,3.07
2017-06-20T17:03:54.131Z,4.60
2017-06-20T17:06:21.589Z,2.33
2017-06-20T17:08:49.016Z,2.77
2017-06-20T17:11:16.439Z,2.60
2017-06-20T17:13:43.878Z,9.30
2017-06-20T17:16:11.300Z,6.33
2017-06-20T17:18:38.719Z,3.20
2017-06-20T17:21:06.125Z,3.60
2017-06-20T17:23:33.570Z,1.30
2017-06-20T17:26:00.998Z,16.93
2017-06-20T17:28:28.403Z,1.73
2017-06-20T17:30:55.872Z,6.00
2017-06-20T17:33:23.294Z,2.93
2017-06-20T17:35:50.700Z,4.07
2017-06-20T17:38:18.111Z,1.27
2017-06-20T17:40:45.544Z,2.87
2017-06-20T17:43:13.048Z,4.30
2017-06-20T17:45:40.511Z,4.43
2017-06-20T17:48:07.920Z,5.07
2017-06-20T17:50:35.324Z,2.27
2017-06-20T17:53:02.716Z,1.70
2017-06-20T17:55:30.143Z,6.00
2017-06-20T17:57:57.547Z,3.43
2017-06-20T18:00:24.958Z,3.80
2017-06-20T18:02:52.363Z,7.23
2017-06-20T18:05:19.833Z,3.03
2017-06-20T18:07:48.339Z,2.10
2017-06-20T18:10:15.768Z,10.40
2017-06-20T18:12:43.216Z,5.07
2017-06-20T18:15:10.616Z,4.57
2017-06-20T18:17:38.040Z,6.53
2017-06-20T18:20:05.444Z,5.60
2017-06-20T18:22:32.888Z,5.53
2017-06-20T18:25:00.289Z,4.00
2017-06-20T18:27:27.695Z,4.67
2017-06-20T18:29:55.176Z,2.10
2017-06-20T18:32:22.598Z,1.37
2017-06-20T18:34:49.996Z,2.70
2017-06-20T18:37:17.415Z,2.57
2017-06-20T18:39:44.844Z,6.73
2017-06-20T18:42:12.284Z,10.87
2017-06-20T18:44:39.745Z,4.77
2017-06-20T18:47:07.148Z,2.07
2017-06-20T18:49:34.624Z,2.00
2017-06-20T18:52:02.176Z,2.30
2017-06-20T18:54:29.597Z,11.97
2017-06-20T18:56:57.041Z,1.97
2017-06-20T18:59:25.685Z,2.83
2017-06-20T19:01:53.121Z,1.60
2017-06-20T19:04:20.583Z,4.83
2017-06-20T19:06:48.035Z,4.63
2017-06-20T19:09:15.455Z,6.00
2017-06-20T19:11:42.874Z,5.20
2017-06-20T19:14:10.292Z,2.20
2017-06-20T19:16:37.690Z,7.77
2017-06-20T19:19:05.143Z,5.20
2017-06-20T19:21:32.598Z,7.07
2017-06-20T19:23:59.997Z,2.97
2017-06-20T19:26:27.433Z,4.40
2017-06-20T19:28:54.879Z,3.93
2017-06-20T19:31:22.304Z,7.93
2017-06-20T19:33:49.740Z,4.80
2017-06-20T19:36:17.145Z,12.33
2017-06-20T19:38:44.673Z,5.77
2017-06-20T19:41:12.071Z,7.73
2017-06-20T19:43:39.506Z,7.20
2017-06-20T19:46:06.903Z,4.13
2017-06-20T19:48:34.299Z,5.73
2017-06-20T19:51:01.750Z,6.17
2017-06-20T19:53:29.147Z,3.20
2017-06-20T19:55:56.559Z,6.67
2017-06-20T19:58:25.433Z,6.23
2017-06-20T20:00:52.919Z,8.40
2017-06-20T20:03:20.318Z,2.97
2017-06-20T20:05:47.731Z,7.43
2017-06-20T20:08:15.145Z,6.03
2017-06-20T20:10:42.566Z,2.70
2017-06-20T20:13:09.967Z,1.70
2017-06-20T20:15:37.377Z,9.07
2017-06-20T20:18:04.787Z,9.90
2017-06-20T20:20:32.202Z,5.40
2017-06-20T20:22:59.677Z,17.73
2017-06-20T20:25:27.108Z,13.37
2017-06-20T20:27:54.547Z,12.57
2017-06-20T20:30:21.978Z,8.23
2017-06-20T20:32:49.375Z,7.77
2017-06-20T20:35:16.801Z,6.20
2017-06-20T20:37:44.221Z,6.00
2017-06-20T20:40:11.627Z,8.80
2017-06-20T20:42:39.035Z,9.67
2017-06-20T20:45:06.518Z,5.40
2017-06-20T20:47:33.933Z,8.77
2017-06-20T20:50:01.335Z,3.50
2017-06-20T20:52:29.455Z,4.03
2017-06-20T20:54:56.864Z,9.57
2017-06-20T20:57:24.270Z,6.40
2017-06-20T20:59:51.700Z,11.60
2017-06-20T21:02:19.093Z,8.90
2017-06-20T21:04:46.491Z,7.27
2017-06-20T21:07:13.912Z,8.50
2017-06-20T21:09:41.343Z,8.33
2017-06-20T21:12:08.759Z,9.73
2017-06-20T21:14:36.189Z,7.23
2017-06-20T21:17:03.655Z,12.67
2017-06-20T21:19:31.058Z,4.73
2017-06-20T21:21:58.489Z,8.00
2017-06-20T21:24:25.899Z,13.73
2017-06-20T21:26:53.320Z,15.80
2017-06-20T21:29:20.733Z,9.70
2017-06-20T21:31:48.143Z,7.60
2017-06-20T21:34:15.559Z,12.47
2017-06-20T21:36:42.955Z,9.07
2017-06-20T21:39:10.370Z,12.83
2017-06-20T21:41:40.718Z,7.50
2017-06-20T21:44:08.588Z,8.20
2017-06-20T21:46:35.988Z,6.43
2017-06-20T21:49:03.395Z,14.37
2017-06-20T21:51:30.976Z,5.03
2017-06-20T21:53:58.392Z,10.60
2017-06-20T21:56:25.815Z,10.73
2017-06-20T21:58:53.227Z,11.53
2017-06-20T22:01:20.649Z,7.10
2017-06-20T22:03:48.044Z,7.97
2017-06-20T22:06:15.491Z,8.43
2017-06-20T22:08:43.801Z,6.50
2017-06-20T22:11:11.212Z,6.40
2017-06-20T22:13:38.603Z,6.00
2017-06-20T22:16:06.027Z,8.23
2017-06-20T22:18:33.444Z,8.60
2017-06-20T22:21:00.839Z,7.77
2017-06-20T22:23:28.287Z,10.10
2017-06-20T22:25:55.667Z,10.80
2017-06-20T22:28:23.075Z,8.70
2017-06-20T22:30:50.520Z,9.03
2017-06-20T22:33:17.942Z,14.87
2017-06-20T22:35:45.350Z,8.10
2017-06-20T22:38:12.763Z,11.93
2017-06-20T22:40:40.151Z,8.60
2017-06-20T22:43:07.547Z,7.80
2017-06-20T22:45:34.955Z,19.70
2017-06-20T22:48:02.370Z,11.23
2017-06-20T22:50:29.773Z,22.30
2017-06-20T22:52:57.168Z,9.00
2017-06-20T22:55:24.575Z,6.73
2017-06-20T22:57:51.997Z,16.00
2017-06-20T23:00:19.494Z,8.40
2017-06-20T23:02:46.880Z,7.67
2017-06-20T23:05:14.279Z,3.50
2017-06-20T23:07:41.691Z,11.00
2017-06-20T23:10:09.096Z,9.20
2017-06-20T23:12:36.506Z,11.13
2017-06-20T23:15:03.911Z,11.83
2017-06-20T23:17:31.310Z,5.70
2017-06-20T23:19:58.718Z,7.83
2017-06-20T23:22:26.123Z,11.23
2017-06-20T23:24:53.520Z,10.43
2017-06-20T23:27:22.315Z,9.33
2017-06-20T23:29:49.712Z,6.93
2017-06-20T23:32:17.137Z,6.53
2017-06-20T23:34:44.529Z,18.20
2017-06-20T23:37:11.931Z,7.20
2017-06-20T23:39:39.336Z,6.13
2017-06-20T23:42:06.740Z,5.43
2017-06-20T23:44:34.164Z,7.70
2017-06-20T23:47:01.568Z,7.27
2017-06-20T23:49:28.970Z,8.97
2017-06-20T23:51:56.642Z,10.23
2017-06-20T23:54:24.063Z,17.40
2017-06-20T23:56:51.463Z,8.17
2017-06-20T23:59:18.875Z,10.23
